sensor_id;sensor_type;location;lat;lon;timestamp;P1;durP1;ratioP1;P2;durP2;ratioP2
23470;SDS011;11908;50.806;4.424;2023-04-10T00:00:41;12.88;;;9.23;;
23470;SDS011;11908;50.806;4.424;2023-04-10T00:03:09;11.65;;;8.70;;
23470;SDS011;11908;50.806;4.424;2023-04-10T00:05:35;10.70;;;8.38;;
23470;SDS011;11908;50.806;4.424;2023-04-10T00:08:01;12.50;;;8.82;;
23470;SDS011;11908;50.806;4.424;2023-04-10T00:10:27;16.58;;;10.02;;
23470;SDS011;11908;50.806;4.424;2023-04-10T00:12:55;14.30;;;9.52;;
23470;SDS011;11908;50.806;4.424;2023-04-10T00:15:21;17.25;;;10.10;;
23470;SDS011;11908;50.806;4.424;2023-04-10T00:17:47;13.57;;;9.50;;
23470;SDS011;11908;50.806;4.424;2023-04-10T00:20:16;14.85;;;10.10;;
23470;SDS011;11908;50.806;4.424;2023-04-10T00:22:41;13.68;;;9.38;;
23470;SDS011;11908;50.806;4.424;2023-04-10T00:25:07;12.00;;;9.30;;
23470;SDS011;11908;50.806;4.424;2023-04-10T00:27:33;14.45;;;9.38;;
23470;SDS011;11908;50.806;4.424;2023-04-10T00:29:58;12.45;;;8.43;;
23470;SDS011;11908;50.806;4.424;2023-04-10T00:32:26;12.07;;;8.18;;
23470;SDS011;11908;50.806;4.424;2023-04-10T00:34:52;10.82;;;8.18;;
23470;SDS011;11908;50.806;4.424;2023-04-10T00:37:17;11.63;;;7.65;;
23470;SDS011;11908;50.806;4.424;2023-04-10T00:39:44;10.85;;;8.27;;
23470;SDS011;11908;50.806;4.424;2023-04-10T00:42:09;12.80;;;8.25;;
23470;SDS011;11908;50.806;4.424;2023-04-10T00:44:35;9.65;;;8.00;;
23470;SDS011;11908;50.806;4.424;2023-04-10T00:47:05;10.75;;;8.07;;
23470;SDS011;11908;50.806;4.424;2023-04-10T00:49:31;13.55;;;8.00;;
23470;SDS011;11908;50.806;4.424;2023-04-10T00:51:58;12.82;;;8.60;;
23470;SDS011;11908;50.806;4.424;2023-04-10T00:54:24;9.43;;;7.90;;
23470;SDS011;11908;50.806;4.424;2023-04-10T00:56:50;10.55;;;8.07;;
23470;SDS011;11908;50.806;4.424;2023-04-10T00:59:16;9.82;;;7.88;;
23470;SDS011;11908;50.806;4.424;2023-04-10T01:04:36;10.85;;;7.28;;
23470;SDS011;11908;50.806;4.424;2023-04-10T01:07:09;11.50;;;8.02;;
23470;SDS011;11908;50.806;4.424;2023-04-10T01:10:04;9.95;;;7.75;;
23470;SDS011;11908;50.806;4.424;2023-04-10T01:15:19;10.27;;;7.90;;
23470;SDS011;11908;50.806;4.424;2023-04-10T01:20:31;10.10;;;7.70;;
23470;SDS011;11908;50.806;4.424;2023-04-10T01:25:52;9.45;;;7.32;;
23470;SDS011;11908;50.806;4.424;2023-04-10T01:28:29;11.05;;;7.25;;
23470;SDS011;11908;50.806;4.424;2023-04-10T01:31:04;8.80;;;6.95;;
23470;SDS011;11908;50.806;4.424;2023-04-10T01:33:37;10.20;;;7.30;;
23470;SDS011;11908;50.806;4.424;2023-04-10T01:36:09;9.40;;;7.18;;
23470;SDS011;11908;50.806;4.424;2023-04-10T01:38:36;9.30;;;7.15;;
23470;SDS011;11908;50.806;4.424;2023-04-10T01:41:06;9.20;;;6.88;;
23470;SDS011;11908;50.806;4.424;2023-04-10T01:43:32;8.23;;;6.85;;
23470;SDS011;11908;50.806;4.424;2023-04-10T01:45:59;8.23;;;6.75;;
23470;SDS011;11908;50.806;4.424;2023-04-10T01:48:26;8.63;;;6.40;;
23470;SDS011;11908;50.806;4.424;2023-04-10T01:50:53;9.55;;;6.72;;
23470;SDS011;11908;50.806;4.424;2023-04-10T01:53:19;8.85;;;6.60;;
23470;SDS011;11908;50.806;4.424;2023-04-10T01:55:47;8.50;;;6.57;;
23470;SDS011;11908;50.806;4.424;2023-04-10T01:58:17;9.43;;;6.38;;
23470;SDS011;11908;50.806;4.424;2023-04-10T02:00:43;7.50;;;6.60;;
23470;SDS011;11908;50.806;4.424;2023-04-10T02:03:09;6.85;;;6.15;;
23470;SDS011;11908;50.806;4.424;2023-04-10T02:05:42;8.18;;;6.53;;
23470;SDS011;11908;50.806;4.424;2023-04-10T02:08:25;8.80;;;5.88;;
23470;SDS011;11908;50.806;4.424;2023-04-10T02:11:14;7.72;;;6.40;;
23470;SDS011;11908;50.806;4.424;2023-04-10T02:13:48;7.63;;;6.25;;
23470;SDS011;11908;50.806;4.424;2023-04-10T02:16:17;8.05;;;6.65;;
23470;SDS011;11908;50.806;4.424;2023-04-10T02:18:44;7.40;;;6.35;;
23470;SDS011;11908;50.806;4.424;2023-04-10T02:21:11;7.53;;;6.32;;
23470;SDS011;11908;50.806;4.424;2023-04-10T02:23:37;7.60;;;5.82;;
23470;SDS011;11908;50.806;4.424;2023-04-10T02:26:07;7.35;;;5.75;;
23470;SDS011;11908;50.806;4.424;2023-04-10T02:28:33;8.18;;;6.28;;
23470;SDS011;11908;50.806;4.424;2023-04-10T02:31:01;6.45;;;5.45;;
23470;SDS011;11908;50.806;4.424;2023-04-10T02:33:27;10.00;;;6.50;;
23470;SDS011;11908;50.806;4.424;2023-04-10T02:35:52;8.50;;;6.55;;
23470;SDS011;11908;50.806;4.424;2023-04-10T02:38:18;10.98;;;6.07;;
23470;SDS011;11908;50.806;4.424;2023-04-10T02:40:44;7.50;;;6.18;;
23470;SDS011;11908;50.806;4.424;2023-04-10T02:43:10;8.55;;;6.00;;
23470;SDS011;11908;50.806;4.424;2023-04-10T02:45:36;6.68;;;5.63;;
23470;SDS011;11908;50.806;4.424;2023-04-10T02:48:04;7.43;;;5.60;;
23470;SDS011;11908;50.806;4.424;2023-04-10T02:50:30;9.38;;;6.07;;
23470;SDS011;11908;50.806;4.424;2023-04-10T02:52:56;9.50;;;6.55;;
23470;SDS011;11908;50.806;4.424;2023-04-10T02:55:22;7.15;;;5.95;;
23470;SDS011;11908;50.806;4.424;2023-04-10T02:57:48;16.08;;;6.07;;
23470;SDS011;11908;50.806;4.424;2023-04-10T03:00:13;7.72;;;6.03;;
23470;SDS011;11908;50.806;4.424;2023-04-10T03:02:40;7.60;;;5.82;;
23470;SDS011;11908;50.806;4.424;2023-04-10T03:05:05;8.48;;;5.85;;
23470;SDS011;11908;50.806;4.424;2023-04-10T03:07:32;7.90;;;5.65;;
23470;SDS011;11908;50.806;4.424;2023-04-10T03:09:58;7.28;;;6.32;;
23470;SDS011;11908;50.806;4.424;2023-04-10T03:12:24;7.10;;;5.80;;
23470;SDS011;11908;50.806;4.424;2023-04-10T03:14:50;7.50;;;5.50;;
23470;SDS011;11908;50.806;4.424;2023-04-10T03:17:16;7.65;;;6.05;;
23470;SDS011;11908;50.806;4.424;2023-04-10T03:19:42;7.53;;;5.45;;
23470;SDS011;11908;50.806;4.424;2023-04-10T03:22:07;7.10;;;5.63;;
23470;SDS011;11908;50.806;4.424;2023-04-10T03:24:34;8.57;;;5.43;;
23470;SDS011;11908;50.806;4.424;2023-04-10T03:27:02;6.07;;;5.47;;
23470;SDS011;11908;50.806;4.424;2023-04-10T03:29:27;12.32;;;5.85;;
23470;SDS011;11908;50.806;4.424;2023-04-10T03:31:53;7.57;;;5.75;;
23470;SDS011;11908;50.806;4.424;2023-04-10T03:34:19;7.32;;;5.75;;
23470;SDS011;11908;50.806;4.424;2023-04-10T03:36:45;5.80;;;5.07;;
23470;SDS011;11908;50.806;4.424;2023-04-10T03:39:11;8.65;;;5.22;;
23470;SDS011;11908;50.806;4.424;2023-04-10T03:41:36;8.70;;;5.93;;
23470;SDS011;11908;50.806;4.424;2023-04-10T03:44:02;6.30;;;5.25;;
23470;SDS011;11908;50.806;4.424;2023-04-10T03:46:28;7.72;;;5.45;;
23470;SDS011;11908;50.806;4.424;2023-04-10T03:48:53;9.80;;;5.57;;
23470;SDS011;11908;50.806;4.424;2023-04-10T03:51:19;8.35;;;5.55;;
23470;SDS011;11908;50.806;4.424;2023-04-10T03:53:47;9.00;;;5.90;;
23470;SDS011;11908;50.806;4.424;2023-04-10T03:56:13;7.22;;;5.25;;
23470;SDS011;11908;50.806;4.424;2023-04-10T03:58:38;9.20;;;5.95;;
23470;SDS011;11908;50.806;4.424;2023-04-10T04:01:04;8.57;;;5.90;;
23470;SDS011;11908;50.806;4.424;2023-04-10T04:03:30;6.47;;;5.63;;
23470;SDS011;11908;50.806;4.424;2023-04-10T04:05:56;11.20;;;6.05;;
23470;SDS011;11908;50.806;4.424;2023-04-10T04:08:22;7.05;;;5.07;;
23470;SDS011;11908;50.806;4.424;2023-04-10T04:10:47;6.43;;;5.38;;
23470;SDS011;11908;50.806;4.424;2023-04-10T04:13:13;7.30;;;5.45;;
23470;SDS011;11908;50.806;4.424;2023-04-10T04:15:39;6.47;;;5.25;;
23470;SDS011;11908;50.806;4.424;2023-04-10T04:18:06;9.18;;;5.90;;
23470;SDS011;11908;50.806;4.424;2023-04-10T04:20:32;7.10;;;5.45;;
23470;SDS011;11908;50.806;4.424;2023-04-10T04:22:58;7.28;;;5.55;;
23470;SDS011;11908;50.806;4.424;2023-04-10T04:25:24;10.95;;;5.55;;
23470;SDS011;11908;50.806;4.424;2023-04-10T04:27:50;8.20;;;5.72;;
23470;SDS011;11908;50.806;4.424;2023-04-10T04:30:15;7.60;;;5.63;;
23470;SDS011;11908;50.806;4.424;2023-04-10T04:32:41;7.07;;;5.55;;
23470;SDS011;11908;50.806;4.424;2023-04-10T04:35:07;8.95;;;6.05;;
23470;SDS011;11908;50.806;4.424;2023-04-10T04:37:33;6.30;;;5.53;;
23470;SDS011;11908;50.806;4.424;2023-04-10T04:39:58;7.75;;;5.50;;
23470;SDS011;11908;50.806;4.424;2023-04-10T04:42:25;7.88;;;5.30;;
23470;SDS011;11908;50.806;4.424;2023-04-10T04:44:51;6.50;;;5.72;;
23470;SDS011;11908;50.806;4.424;2023-04-10T04:47:16;6.43;;;5.43;;
23470;SDS011;11908;50.806;4.424;2023-04-10T04:49:42;7.00;;;5.65;;
23470;SDS011;11908;50.806;4.424;2023-04-10T04:52:08;8.52;;;5.85;;
23470;SDS011;11908;50.806;4.424;2023-04-10T04:54:33;8.02;;;6.22;;
23470;SDS011;11908;50.806;4.424;2023-04-10T04:56:59;8.07;;;5.85;;
23470;SDS011;11908;50.806;4.424;2023-04-10T04:59:25;7.00;;;5.78;;
23470;SDS011;11908;50.806;4.424;2023-04-10T05:01:51;6.18;;;5.35;;
23470;SDS011;11908;50.806;4.424;2023-04-10T05:04:17;6.45;;;5.55;;
23470;SDS011;11908;50.806;4.424;2023-04-10T05:06:44;7.93;;;5.30;;
23470;SDS011;11908;50.806;4.424;2023-04-10T05:09:10;5.85;;;4.97;;
23470;SDS011;11908;50.806;4.424;2023-04-10T05:11:35;8.05;;;5.30;;
23470;SDS011;11908;50.806;4.424;2023-04-10T05:14:01;7.30;;;6.07;;
23470;SDS011;11908;50.806;4.424;2023-04-10T05:16:27;7.57;;;5.40;;
23470;SDS011;11908;50.806;4.424;2023-04-10T05:18:53;9.38;;;5.97;;
23470;SDS011;11908;50.806;4.424;2023-04-10T05:21:19;6.45;;;5.43;;
23470;SDS011;11908;50.806;4.424;2023-04-10T05:23:45;6.45;;;5.38;;
23470;SDS011;11908;50.806;4.424;2023-04-10T05:26:10;8.43;;;5.63;;
23470;SDS011;11908;50.806;4.424;2023-04-10T05:28:36;6.47;;;5.25;;
23470;SDS011;11908;50.806;4.424;2023-04-10T05:31:01;6.65;;;5.40;;
23470;SDS011;11908;50.806;4.424;2023-04-10T05:33:27;7.45;;;5.47;;
23470;SDS011;11908;50.806;4.424;2023-04-10T05:35:53;7.10;;;6.03;;
23470;SDS011;11908;50.806;4.424;2023-04-10T05:38:19;6.38;;;5.25;;
23470;SDS011;11908;50.806;4.424;2023-04-10T05:40:44;8.55;;;5.50;;
23470;SDS011;11908;50.806;4.424;2023-04-10T05:43:11;8.05;;;5.95;;
23470;SDS011;11908;50.806;4.424;2023-04-10T05:45:36;7.53;;;5.90;;
23470;SDS011;11908;50.806;4.424;2023-04-10T05:48:02;6.97;;;5.65;;
23470;SDS011;11908;50.806;4.424;2023-04-10T05:50:28;6.65;;;5.13;;
23470;SDS011;11908;50.806;4.424;2023-04-10T05:52:53;6.90;;;5.65;;
23470;SDS011;11908;50.806;4.424;2023-04-10T05:55:19;7.88;;;5.25;;
23470;SDS011;11908;50.806;4.424;2023-04-10T05:57:45;6.32;;;5.28;;
23470;SDS011;11908;50.806;4.424;2023-04-10T06:00:11;6.93;;;5.53;;
23470;SDS011;11908;50.806;4.424;2023-04-10T06:02:38;9.38;;;5.10;;
23470;SDS011;11908;50.806;4.424;2023-04-10T06:05:04;6.55;;;5.25;;
23470;SDS011;11908;50.806;4.424;2023-04-10T06:07:29;6.53;;;5.82;;
23470;SDS011;11908;50.806;4.424;2023-04-10T06:09:57;6.07;;;5.30;;
23470;SDS011;11908;50.806;4.424;2023-04-10T06:12:22;7.10;;;5.18;;
23470;SDS011;11908;50.806;4.424;2023-04-10T06:14:48;6.25;;;5.47;;
23470;SDS011;11908;50.806;4.424;2023-04-10T06:17:14;6.63;;;5.53;;
23470;SDS011;11908;50.806;4.424;2023-04-10T06:19:39;5.22;;;4.72;;
23470;SDS011;11908;50.806;4.424;2023-04-10T06:22:05;7.07;;;4.75;;
23470;SDS011;11908;50.806;4.424;2023-04-10T06:24:31;7.75;;;4.97;;
23470;SDS011;11908;50.806;4.424;2023-04-10T06:26:56;6.93;;;5.43;;
23470;SDS011;11908;50.806;4.424;2023-04-10T06:29:22;7.05;;;5.00;;
23470;SDS011;11908;50.806;4.424;2023-04-10T06:31:48;6.13;;;4.70;;
23470;SDS011;11908;50.806;4.424;2023-04-10T06:34:14;6.88;;;5.15;;
23470;SDS011;11908;50.806;4.424;2023-04-10T06:36:39;6.25;;;4.78;;
23470;SDS011;11908;50.806;4.424;2023-04-10T06:39:05;7.57;;;5.43;;
23470;SDS011;11908;50.806;4.424;2023-04-10T06:41:31;6.28;;;4.75;;
23470;SDS011;11908;50.806;4.424;2023-04-10T06:43:56;6.25;;;4.78;;
23470;SDS011;11908;50.806;4.424;2023-04-10T06:46:22;5.90;;;5.10;;
23470;SDS011;11908;50.806;4.424;2023-04-10T06:48:48;7.88;;;5.05;;
23470;SDS011;11908;50.806;4.424;2023-04-10T06:51:13;5.85;;;4.90;;
23470;SDS011;11908;50.806;4.424;2023-04-10T06:53:39;5.68;;;5.03;;
23470;SDS011;11908;50.806;4.424;2023-04-10T06:56:05;5.95;;;5.18;;
23470;SDS011;11908;50.806;4.424;2023-04-10T06:58:31;5.38;;;4.50;;
23470;SDS011;11908;50.806;4.424;2023-04-10T07:00:57;8.00;;;4.70;;
23470;SDS011;11908;50.806;4.424;2023-04-10T07:03:24;13.02;;;5.18;;
23470;SDS011;11908;50.806;4.424;2023-04-10T07:05:50;7.38;;;4.65;;
23470;SDS011;11908;50.806;4.424;2023-04-10T07:08:16;6.22;;;5.10;;
23470;SDS011;11908;50.806;4.424;2023-04-10T07:10:41;5.60;;;4.55;;
23470;SDS011;11908;50.806;4.424;2023-04-10T07:13:07;5.45;;;4.40;;
23470;SDS011;11908;50.806;4.424;2023-04-10T07:15:33;6.18;;;4.72;;
23470;SDS011;11908;50.806;4.424;2023-04-10T07:17:58;5.80;;;4.95;;
23470;SDS011;11908;50.806;4.424;2023-04-10T07:20:24;6.70;;;5.00;;
23470;SDS011;11908;50.806;4.424;2023-04-10T07:22:50;7.80;;;5.32;;
23470;SDS011;11908;50.806;4.424;2023-04-10T07:25:16;6.50;;;5.05;;
23470;SDS011;11908;50.806;4.424;2023-04-10T07:27:42;6.50;;;4.90;;
23470;SDS011;11908;50.806;4.424;2023-04-10T07:30:08;7.03;;;5.18;;
23470;SDS011;11908;50.806;4.424;2023-04-10T07:32:34;6.50;;;4.75;;
23470;SDS011;11908;50.806;4.424;2023-04-10T07:35:01;12.73;;;4.80;;
23470;SDS011;11908;50.806;4.424;2023-04-10T07:37:27;6.60;;;4.75;;
23470;SDS011;11908;50.806;4.424;2023-04-10T07:39:52;5.88;;;4.90;;
23470;SDS011;11908;50.806;4.424;2023-04-10T07:42:18;7.13;;;4.70;;
23470;SDS011;11908;50.806;4.424;2023-04-10T07:44:44;6.30;;;4.65;;
23470;SDS011;11908;50.806;4.424;2023-04-10T07:47:09;13.75;;;5.00;;
23470;SDS011;11908;50.806;4.424;2023-04-10T07:49:35;7.32;;;4.70;;
23470;SDS011;11908;50.806;4.424;2023-04-10T07:52:01;6.75;;;4.80;;
23470;SDS011;11908;50.806;4.424;2023-04-10T07:54:26;6.63;;;4.97;;
23470;SDS011;11908;50.806;4.424;2023-04-10T07:56:52;7.53;;;4.95;;
23470;SDS011;11908;50.806;4.424;2023-04-10T07:59:17;5.63;;;4.88;;
23470;SDS011;11908;50.806;4.424;2023-04-10T08:01:43;6.45;;;5.05;;
23470;SDS011;11908;50.806;4.424;2023-04-10T08:04:09;7.45;;;4.88;;
23470;SDS011;11908;50.806;4.424;2023-04-10T08:06:35;6.28;;;5.03;;
23470;SDS011;11908;50.806;4.424;2023-04-10T08:09:00;6.60;;;5.30;;
23470;SDS011;11908;50.806;4.424;2023-04-10T08:11:27;5.85;;;4.82;;
23470;SDS011;11908;50.806;4.424;2023-04-10T08:13:58;9.55;;;5.13;;
23470;SDS011;11908;50.806;4.424;2023-04-10T08:16:26;6.70;;;5.10;;
23470;SDS011;11908;50.806;4.424;2023-04-10T08:18:53;7.68;;;4.97;;
23470;SDS011;11908;50.806;4.424;2023-04-10T08:21:20;8.60;;;5.13;;
23470;SDS011;11908;50.806;4.424;2023-04-10T08:23:50;5.75;;;4.38;;
23470;SDS011;11908;50.806;4.424;2023-04-10T08:26:17;7.43;;;4.55;;
23470;SDS011;11908;50.806;4.424;2023-04-10T08:28:43;5.43;;;4.63;;
23470;SDS011;11908;50.806;4.424;2023-04-10T08:31:13;5.78;;;4.57;;
23470;SDS011;11908;50.806;4.424;2023-04-10T08:33:38;6.32;;;5.05;;
23470;SDS011;11908;50.806;4.424;2023-04-10T08:36:04;5.15;;;4.63;;
23470;SDS011;11908;50.806;4.424;2023-04-10T08:38:30;5.50;;;4.50;;
23470;SDS011;11908;50.806;4.424;2023-04-10T08:40:56;6.30;;;4.28;;
23470;SDS011;11908;50.806;4.424;2023-04-10T08:43:22;6.32;;;4.50;;
23470;SDS011;11908;50.806;4.424;2023-04-10T08:45:49;8.10;;;4.65;;
23470;SDS011;11908;50.806;4.424;2023-04-10T08:48:16;6.63;;;4.30;;
23470;SDS011;11908;50.806;4.424;2023-04-10T08:50:44;5.40;;;4.63;;
23470;SDS011;11908;50.806;4.424;2023-04-10T08:53:12;5.18;;;4.20;;
23470;SDS011;11908;50.806;4.424;2023-04-10T08:55:41;5.78;;;4.78;;
23470;SDS011;11908;50.806;4.424;2023-04-10T08:58:09;6.88;;;4.85;;
23470;SDS011;11908;50.806;4.424;2023-04-10T09:00:37;7.28;;;5.28;;
23470;SDS011;11908;50.806;4.424;2023-04-10T09:03:09;6.07;;;4.68;;
23470;SDS011;11908;50.806;4.424;2023-04-10T09:05:38;6.53;;;5.22;;
23470;SDS011;11908;50.806;4.424;2023-04-10T09:08:06;8.23;;;5.03;;
23470;SDS011;11908;50.806;4.424;2023-04-10T09:10:32;6.25;;;4.68;;
23470;SDS011;11908;50.806;4.424;2023-04-10T09:12:58;9.45;;;5.10;;
23470;SDS011;11908;50.806;4.424;2023-04-10T09:15:24;6.72;;;5.00;;
23470;SDS011;11908;50.806;4.424;2023-04-10T09:17:54;8.57;;;4.75;;
23470;SDS011;11908;50.806;4.424;2023-04-10T09:20:20;8.73;;;4.82;;
23470;SDS011;11908;50.806;4.424;2023-04-10T09:22:47;8.20;;;4.95;;
23470;SDS011;11908;50.806;4.424;2023-04-10T09:28:01;6.18;;;4.57;;
23470;SDS011;11908;50.806;4.424;2023-04-10T09:30:36;8.40;;;5.40;;
23470;SDS011;11908;50.806;4.424;2023-04-10T09:33:21;7.75;;;4.90;;
23470;SDS011;11908;50.806;4.424;2023-04-10T09:35:52;7.30;;;5.10;;
23470;SDS011;11908;50.806;4.424;2023-04-10T09:38:21;10.50;;;6.38;;
23470;SDS011;11908;50.806;4.424;2023-04-10T09:40:47;6.57;;;4.68;;
23470;SDS011;11908;50.806;4.424;2023-04-10T09:43:17;9.15;;;5.43;;
23470;SDS011;11908;50.806;4.424;2023-04-10T09:46:00;9.10;;;4.97;;
23470;SDS011;11908;50.806;4.424;2023-04-10T09:48:26;7.47;;;5.03;;
23470;SDS011;11908;50.806;4.424;2023-04-10T09:50:52;6.03;;;4.38;;
23470;SDS011;11908;50.806;4.424;2023-04-10T09:53:18;7.95;;;4.80;;
23470;SDS011;11908;50.806;4.424;2023-04-10T09:55:45;11.90;;;4.47;;
23470;SDS011;11908;50.806;4.424;2023-04-10T09:58:13;7.88;;;5.22;;
23470;SDS011;11908;50.806;4.424;2023-04-10T10:00:43;8.43;;;4.75;;
23470;SDS011;11908;50.806;4.424;2023-04-10T10:03:14;5.32;;;4.22;;
23470;SDS011;11908;50.806;4.424;2023-04-10T10:05:45;8.88;;;4.80;;
23470;SDS011;11908;50.806;4.424;2023-04-10T10:08:14;5.68;;;4.55;;
23470;SDS011;11908;50.806;4.424;2023-04-10T10:10:50;5.13;;;4.35;;
23470;SDS011;11908;50.806;4.424;2023-04-10T10:13:22;6.57;;;4.20;;
23470;SDS011;11908;50.806;4.424;2023-04-10T10:15:58;6.28;;;3.85;;
23470;SDS011;11908;50.806;4.424;2023-04-10T10:18:31;5.53;;;4.07;;
23470;SDS011;11908;50.806;4.424;2023-04-10T10:21:09;5.00;;;3.88;;
23470;SDS011;11908;50.806;4.424;2023-04-10T10:23:37;5.35;;;3.63;;
23470;SDS011;11908;50.806;4.424;2023-04-10T10:26:06;4.65;;;3.58;;
23470;SDS011;11908;50.806;4.424;2023-04-10T10:28:34;4.65;;;3.72;;
23470;SDS011;11908;50.806;4.424;2023-04-10T10:31:04;7.55;;;3.50;;
23470;SDS011;11908;50.806;4.424;2023-04-10T10:33:30;4.88;;;3.40;;
23470;SDS011;11908;50.806;4.424;2023-04-10T10:35:59;4.68;;;3.78;;
23470;SDS011;11908;50.806;4.424;2023-04-10T10:38:26;7.55;;;6.03;;
23470;SDS011;11908;50.806;4.424;2023-04-10T10:40:59;5.50;;;4.68;;
23470;SDS011;11908;50.806;4.424;2023-04-10T10:43:36;5.20;;;3.58;;
23470;SDS011;11908;50.806;4.424;2023-04-10T10:49:16;6.78;;;3.58;;
23470;SDS011;11908;50.806;4.424;2023-04-10T10:51:42;3.50;;;3.20;;
23470;SDS011;11908;50.806;4.424;2023-04-10T10:54:26;22.65;;;14.30;;
23470;SDS011;11908;50.806;4.424;2023-04-10T10:56:56;7.35;;;4.82;;
23470;SDS011;11908;50.806;4.424;2023-04-10T11:02:24;14.02;;;9.38;;
23470;SDS011;11908;50.806;4.424;2023-04-10T11:04:49;5.70;;;4.35;;
23470;SDS011;11908;50.806;4.424;2023-04-10T11:07:15;5.15;;;3.40;;
23470;SDS011;11908;50.806;4.424;2023-04-10T11:12:21;5.55;;;3.10;;
23470;SDS011;11908;50.806;4.424;2023-04-10T11:15:01;4.60;;;3.72;;
23470;SDS011;11908;50.806;4.424;2023-04-10T11:20:14;3.40;;;3.10;;
23470;SDS011;11908;50.806;4.424;2023-04-10T11:25:51;3.58;;;3.10;;
23470;SDS011;11908;50.806;4.424;2023-04-10T11:28:36;3.97;;;2.72;;
23470;SDS011;11908;50.806;4.424;2023-04-10T11:31:19;5.30;;;3.88;;
23470;SDS011;11908;50.806;4.424;2023-04-10T11:33:47;6.72;;;2.55;;
23470;SDS011;11908;50.806;4.424;2023-04-10T11:36:14;4.65;;;2.72;;
23470;SDS011;11908;50.806;4.424;2023-04-10T11:38:52;4.50;;;2.75;;
23470;SDS011;11908;50.806;4.424;2023-04-10T11:41:19;3.45;;;2.90;;
23470;SDS011;11908;50.806;4.424;2023-04-10T11:43:44;5.43;;;2.33;;
23470;SDS011;11908;50.806;4.424;2023-04-10T11:46:15;4.38;;;2.70;;
23470;SDS011;11908;50.806;4.424;2023-04-10T11:48:40;2.90;;;2.30;;
23470;SDS011;11908;50.806;4.424;2023-04-10T11:51:07;3.90;;;2.63;;
23470;SDS011;11908;50.806;4.424;2023-04-10T11:53:33;3.95;;;2.58;;
23470;SDS011;11908;50.806;4.424;2023-04-10T11:55:59;2.53;;;2.33;;
23470;SDS011;11908;50.806;4.424;2023-04-10T11:58:26;3.78;;;2.63;;
23470;SDS011;11908;50.806;4.424;2023-04-10T12:00:56;2.80;;;2.60;;
23470;SDS011;11908;50.806;4.424;2023-04-10T12:03:38;4.07;;;2.53;;
23470;SDS011;11908;50.806;4.424;2023-04-10T12:06:09;4.20;;;2.43;;
23470;SDS011;11908;50.806;4.424;2023-04-10T12:08:37;4.75;;;2.40;;
23470;SDS011;11908;50.806;4.424;2023-04-10T12:11:12;2.57;;;2.37;;
23470;SDS011;11908;50.806;4.424;2023-04-10T12:13:38;4.78;;;2.72;;
23470;SDS011;11908;50.806;4.424;2023-04-10T12:16:07;3.03;;;2.50;;
23470;SDS011;11908;50.806;4.424;2023-04-10T12:18:34;2.78;;;2.42;;
23470;SDS011;11908;50.806;4.424;2023-04-10T12:21:00;4.28;;;2.60;;
23470;SDS011;11908;50.806;4.424;2023-04-10T12:23:27;2.47;;;2.28;;
23470;SDS011;11908;50.806;4.424;2023-04-10T12:26:04;3.00;;;2.70;;
23470;SDS011;11908;50.806;4.424;2023-04-10T12:28:32;6.38;;;2.55;;
23470;SDS011;11908;50.806;4.424;2023-04-10T12:30:58;3.05;;;2.50;;
23470;SDS011;11908;50.806;4.424;2023-04-10T12:33:24;2.97;;;2.20;;
23470;SDS011;11908;50.806;4.424;2023-04-10T12:35:50;2.88;;;2.25;;
23470;SDS011;11908;50.806;4.424;2023-04-10T12:41:01;2.38;;;2.13;;
23470;SDS011;11908;50.806;4.424;2023-04-10T12:46:01;2.53;;;1.88;;
23470;SDS011;11908;50.806;4.424;2023-04-10T12:48:27;2.80;;;2.20;;
23470;SDS011;11908;50.806;4.424;2023-04-10T12:50:53;3.63;;;2.13;;
23470;SDS011;11908;50.806;4.424;2023-04-10T12:53:19;4.82;;;2.00;;
23470;SDS011;11908;50.806;4.424;2023-04-10T12:55:58;3.50;;;2.00;;
23470;SDS011;11908;50.806;4.424;2023-04-10T12:58:25;3.67;;;2.20;;
23470;SDS011;11908;50.806;4.424;2023-04-10T13:00:55;2.72;;;2.03;;
23470;SDS011;11908;50.806;4.424;2023-04-10T13:03:22;3.13;;;1.98;;
23470;SDS011;11908;50.806;4.424;2023-04-10T13:05:48;4.72;;;2.42;;
23470;SDS011;11908;50.806;4.424;2023-04-10T13:08:14;5.40;;;2.40;;
23470;SDS011;11908;50.806;4.424;2023-04-10T13:10:40;4.22;;;3.03;;
23470;SDS011;11908;50.806;4.424;2023-04-10T13:13:07;4.43;;;2.95;;
23470;SDS011;11908;50.806;4.424;2023-04-10T13:15:36;3.20;;;2.63;;
23470;SDS011;11908;50.806;4.424;2023-04-10T13:18:01;3.20;;;2.60;;
23470;SDS011;11908;50.806;4.424;2023-04-10T13:20:28;7.88;;;3.70;;
23470;SDS011;11908;50.806;4.424;2023-04-10T13:22:54;5.22;;;2.80;;
23470;SDS011;11908;50.806;4.424;2023-04-10T13:25:19;3.08;;;2.55;;
23470;SDS011;11908;50.806;4.424;2023-04-10T13:27:47;4.00;;;2.65;;
23470;SDS011;11908;50.806;4.424;2023-04-10T13:30:12;5.20;;;3.28;;
23470;SDS011;11908;50.806;4.424;2023-04-10T13:32:38;5.95;;;3.63;;
23470;SDS011;11908;50.806;4.424;2023-04-10T13:35:04;4.05;;;3.17;;
23470;SDS011;11908;50.806;4.424;2023-04-10T13:37:30;5.38;;;2.85;;
23470;SDS011;11908;50.806;4.424;2023-04-10T13:39:56;5.95;;;2.88;;
23470;SDS011;11908;50.806;4.424;2023-04-10T13:42:21;4.07;;;2.80;;
23470;SDS011;11908;50.806;4.424;2023-04-10T13:44:47;3.05;;;2.67;;
23470;SDS011;11908;50.806;4.424;2023-04-10T13:47:13;3.72;;;3.00;;
23470;SDS011;11908;50.806;4.424;2023-04-10T13:49:39;14.88;;;8.25;;
23470;SDS011;11908;50.806;4.424;2023-04-10T13:52:05;15.02;;;8.40;;
23470;SDS011;11908;50.806;4.424;2023-04-10T13:54:30;6.68;;;4.43;;
23470;SDS011;11908;50.806;4.424;2023-04-10T13:56:56;11.15;;;6.88;;
23470;SDS011;11908;50.806;4.424;2023-04-10T13:59:23;17.88;;;10.40;;
23470;SDS011;11908;50.806;4.424;2023-04-10T14:01:48;15.18;;;8.00;;
23470;SDS011;11908;50.806;4.424;2023-04-10T14:04:17;7.28;;;4.80;;
23470;SDS011;11908;50.806;4.424;2023-04-10T14:06:43;6.07;;;4.03;;
23470;SDS011;11908;50.806;4.424;2023-04-10T14:09:09;6.05;;;3.55;;
23470;SDS011;11908;50.806;4.424;2023-04-10T14:11:34;4.82;;;3.30;;
23470;SDS011;11908;50.806;4.424;2023-04-10T14:14:00;5.95;;;4.13;;
23470;SDS011;11908;50.806;4.424;2023-04-10T14:16:26;3.67;;;2.80;;
23470;SDS011;11908;50.806;4.424;2023-04-10T14:18:52;3.30;;;2.97;;
23470;SDS011;11908;50.806;4.424;2023-04-10T14:21:18;4.75;;;3.30;;
23470;SDS011;11908;50.806;4.424;2023-04-10T14:23:43;3.35;;;2.90;;
23470;SDS011;11908;50.806;4.424;2023-04-10T14:26:10;4.35;;;2.90;;
23470;SDS011;11908;50.806;4.424;2023-04-10T14:28:35;3.58;;;3.15;;
23470;SDS011;11908;50.806;4.424;2023-04-10T14:31:01;7.43;;;3.13;;
23470;SDS011;11908;50.806;4.424;2023-04-10T14:33:28;5.28;;;2.80;;
23470;SDS011;11908;50.806;4.424;2023-04-10T14:35:54;2.85;;;2.50;;
23470;SDS011;11908;50.806;4.424;2023-04-10T14:38:19;10.02;;;2.90;;
23470;SDS011;11908;50.806;4.424;2023-04-10T14:40:45;2.95;;;2.50;;
23470;SDS011;11908;50.806;4.424;2023-04-10T14:43:13;4.85;;;2.88;;
23470;SDS011;11908;50.806;4.424;2023-04-10T14:45:39;3.25;;;2.67;;
23470;SDS011;11908;50.806;4.424;2023-04-10T14:48:05;6.93;;;2.20;;
23470;SDS011;11908;50.806;4.424;2023-04-10T14:50:31;5.93;;;2.25;;
23470;SDS011;11908;50.806;4.424;2023-04-10T14:52:57;5.32;;;2.13;;
23470;SDS011;11908;50.806;4.424;2023-04-10T14:55:29;2.90;;;1.92;;
23470;SDS011;11908;50.806;4.424;2023-04-10T14:57:55;2.78;;;1.88;;
23470;SDS011;11908;50.806;4.424;2023-04-10T15:00:20;2.55;;;1.83;;
23470;SDS011;11908;50.806;4.424;2023-04-10T15:02:49;2.90;;;1.90;;
23470;SDS011;11908;50.806;4.424;2023-04-10T15:05:15;4.25;;;2.10;;
23470;SDS011;11908;50.806;4.424;2023-04-10T15:07:40;4.88;;;2.60;;
23470;SDS011;11908;50.806;4.424;2023-04-10T15:10:06;5.15;;;2.80;;
23470;SDS011;11908;50.806;4.424;2023-04-10T15:12:34;4.63;;;2.50;;
23470;SDS011;11908;50.806;4.424;2023-04-10T15:15:00;6.47;;;3.10;;
23470;SDS011;11908;50.806;4.424;2023-04-10T15:17:25;4.53;;;2.75;;
23470;SDS011;11908;50.806;4.424;2023-04-10T15:19:52;3.92;;;2.65;;